sensor_id;sensor_type;location;lat;lon;timestamp;P1;durP1;ratioP1;P2;durP2;ratioP2
15905;SDS011;8051;50.820;4.884;2023-05-03T00:00:44;24.73;;;22.73;;
15905;SDS011;8051;50.820;4.884;2023-05-03T00:03:12;22.40;;;20.70;;
15905;SDS011;8051;50.820;4.884;2023-05-03T00:05:41;22.83;;;20.63;;
15905;SDS011;8051;50.820;4.884;2023-05-03T00:08:08;21.60;;;20.23;;
15905;SDS011;8051;50.820;4.884;2023-05-03T00:10:35;22.47;;;20.77;;
15905;SDS011;8051;50.820;4.884;2023-05-03T00:13:03;22.50;;;20.70;;
15905;SDS011;8051;50.820;4.884;2023-05-03T00:15:30;22.03;;;20.60;;
15905;SDS011;8051;50.820;4.884;2023-05-03T00:17:58;23.33;;;21.83;;
15905;SDS011;8051;50.820;4.884;2023-05-03T00:20:25;22.47;;;20.67;;
15905;SDS011;8051;50.820;4.884;2023-05-03T00:22:55;23.67;;;21.70;;
15905;SDS011;8051;50.820;4.884;2023-05-03T00:25:22;23.83;;;22.07;;
15905;SDS011;8051;50.820;4.884;2023-05-03T00:27:50;24.27;;;22.23;;
15905;SDS011;8051;50.820;4.884;2023-05-03T00:30:17;22.83;;;21.20;;
15905;SDS011;8051;50.820;4.884;2023-05-03T00:32:45;21.97;;;20.37;;
15905;SDS011;8051;50.820;4.884;2023-05-03T00:35:12;23.20;;;21.70;;
15905;SDS011;8051;50.820;4.884;2023-05-03T00:37:40;23.00;;;21.23;;
15905;SDS011;8051;50.820;4.884;2023-05-03T00:40:09;23.23;;;21.50;;
15905;SDS011;8051;50.820;4.884;2023-05-03T00:42:38;24.47;;;22.00;;
15905;SDS011;8051;50.820;4.884;2023-05-03T00:45:06;22.83;;;21.33;;
15905;SDS011;8051;50.820;4.884;2023-05-03T00:47:34;22.17;;;20.77;;
15905;SDS011;8051;50.820;4.884;2023-05-03T00:50:02;24.03;;;22.43;;
15905;SDS011;8051;50.820;4.884;2023-05-03T00:52:31;24.03;;;22.30;;
15905;SDS011;8051;50.820;4.884;2023-05-03T00:54:58;23.30;;;21.53;;
15905;SDS011;8051;50.820;4.884;2023-05-03T00:57:28;24.73;;;22.93;;
15905;SDS011;8051;50.820;4.884;2023-05-03T00:59:56;24.20;;;22.37;;
15905;SDS011;8051;50.820;4.884;2023-05-03T01:02:24;23.70;;;21.93;;
15905;SDS011;8051;50.820;4.884;2023-05-03T01:04:52;24.47;;;22.73;;
15905;SDS011;8051;50.820;4.884;2023-05-03T01:07:22;21.73;;;19.90;;
15905;SDS011;8051;50.820;4.884;2023-05-03T01:10:03;22.63;;;20.97;;
15905;SDS011;8051;50.820;4.884;2023-05-03T01:12:41;23.53;;;21.83;;
15905;SDS011;8051;50.820;4.884;2023-05-03T01:15:16;23.57;;;22.00;;
15905;SDS011;8051;50.820;4.884;2023-05-03T01:17:53;24.20;;;22.60;;
15905;SDS011;8051;50.820;4.884;2023-05-03T01:20:23;23.93;;;22.33;;
15905;SDS011;8051;50.820;4.884;2023-05-03T01:23:00;22.63;;;21.13;;
15905;SDS011;8051;50.820;4.884;2023-05-03T01:25:37;23.43;;;21.63;;
15905;SDS011;8051;50.820;4.884;2023-05-03T01:28:05;24.77;;;22.73;;
15905;SDS011;8051;50.820;4.884;2023-05-03T01:30:33;23.93;;;22.27;;
15905;SDS011;8051;50.820;4.884;2023-05-03T01:33:02;25.00;;;23.30;;
15905;SDS011;8051;50.820;4.884;2023-05-03T01:35:35;24.37;;;22.53;;
15905;SDS011;8051;50.820;4.884;2023-05-03T01:38:06;23.83;;;22.13;;
15905;SDS011;8051;50.820;4.884;2023-05-03T01:40:46;25.57;;;23.60;;
15905;SDS011;8051;50.820;4.884;2023-05-03T01:43:18;24.60;;;22.83;;
15905;SDS011;8051;50.820;4.884;2023-05-03T01:45:48;25.17;;;23.17;;
15905;SDS011;8051;50.820;4.884;2023-05-03T01:48:16;23.03;;;21.57;;
15905;SDS011;8051;50.820;4.884;2023-05-03T01:50:45;24.57;;;22.40;;
15905;SDS011;8051;50.820;4.884;2023-05-03T01:53:12;25.47;;;23.60;;
15905;SDS011;8051;50.820;4.884;2023-05-03T01:55:40;25.13;;;23.40;;
15905;SDS011;8051;50.820;4.884;2023-05-03T01:58:09;25.00;;;23.20;;
15905;SDS011;8051;50.820;4.884;2023-05-03T02:00:36;24.00;;;22.47;;
15905;SDS011;8051;50.820;4.884;2023-05-03T02:03:04;21.93;;;20.30;;
15905;SDS011;8051;50.820;4.884;2023-05-03T02:05:32;24.13;;;22.30;;
15905;SDS011;8051;50.820;4.884;2023-05-03T02:07:59;23.70;;;21.93;;
15905;SDS011;8051;50.820;4.884;2023-05-03T02:10:27;24.43;;;22.53;;
15905;SDS011;8051;50.820;4.884;2023-05-03T02:12:55;22.37;;;20.77;;
15905;SDS011;8051;50.820;4.884;2023-05-03T02:15:24;24.07;;;22.33;;
15905;SDS011;8051;50.820;4.884;2023-05-03T02:17:51;24.53;;;22.73;;
15905;SDS011;8051;50.820;4.884;2023-05-03T02:20:19;25.80;;;23.83;;
15905;SDS011;8051;50.820;4.884;2023-05-03T02:22:47;27.73;;;25.50;;
15905;SDS011;8051;50.820;4.884;2023-05-03T02:25:14;25.77;;;23.53;;
15905;SDS011;8051;50.820;4.884;2023-05-03T02:27:42;26.27;;;23.60;;
15905;SDS011;8051;50.820;4.884;2023-05-03T02:30:09;25.53;;;23.57;;
15905;SDS011;8051;50.820;4.884;2023-05-03T02:32:39;27.33;;;25.00;;
15905;SDS011;8051;50.820;4.884;2023-05-03T02:35:06;26.07;;;23.93;;
15905;SDS011;8051;50.820;4.884;2023-05-03T02:37:34;24.73;;;23.03;;
15905;SDS011;8051;50.820;4.884;2023-05-03T02:40:02;24.80;;;22.80;;
15905;SDS011;8051;50.820;4.884;2023-05-03T02:42:30;24.83;;;22.63;;
15905;SDS011;8051;50.820;4.884;2023-05-03T02:44:58;24.33;;;22.70;;
15905;SDS011;8051;50.820;4.884;2023-05-03T02:47:25;25.47;;;23.27;;
15905;SDS011;8051;50.820;4.884;2023-05-03T02:49:54;25.70;;;23.53;;
15905;SDS011;8051;50.820;4.884;2023-05-03T02:52:21;25.33;;;23.63;;
15905;SDS011;8051;50.820;4.884;2023-05-03T02:54:49;26.40;;;24.33;;
15905;SDS011;8051;50.820;4.884;2023-05-03T02:57:16;24.80;;;23.03;;
15905;SDS011;8051;50.820;4.884;2023-05-03T02:59:44;26.30;;;24.33;;
15905;SDS011;8051;50.820;4.884;2023-05-03T03:02:11;25.33;;;23.03;;
15905;SDS011;8051;50.820;4.884;2023-05-03T03:04:39;25.40;;;23.67;;
15905;SDS011;8051;50.820;4.884;2023-05-03T03:07:08;26.13;;;24.13;;
15905;SDS011;8051;50.820;4.884;2023-05-03T03:09:35;26.43;;;24.43;;
15905;SDS011;8051;50.820;4.884;2023-05-03T03:12:03;23.57;;;21.73;;
15905;SDS011;8051;50.820;4.884;2023-05-03T03:14:30;25.70;;;23.17;;
15905;SDS011;8051;50.820;4.884;2023-05-03T03:16:59;26.50;;;24.13;;
15905;SDS011;8051;50.820;4.884;2023-05-03T03:19:27;24.77;;;22.73;;
15905;SDS011;8051;50.820;4.884;2023-05-03T03:21:54;23.93;;;22.33;;
15905;SDS011;8051;50.820;4.884;2023-05-03T03:24:23;25.33;;;23.53;;
15905;SDS011;8051;50.820;4.884;2023-05-03T03:26:50;25.77;;;23.77;;
15905;SDS011;8051;50.820;4.884;2023-05-03T03:29:18;25.13;;;22.63;;
15905;SDS011;8051;50.820;4.884;2023-05-03T03:31:45;23.97;;;22.23;;
15905;SDS011;8051;50.820;4.884;2023-05-03T03:34:13;24.57;;;22.53;;
15905;SDS011;8051;50.820;4.884;2023-05-03T03:36:40;25.17;;;23.17;;
15905;SDS011;8051;50.820;4.884;2023-05-03T03:39:08;25.50;;;23.17;;
15905;SDS011;8051;50.820;4.884;2023-05-03T03:41:37;22.63;;;20.97;;
15905;SDS011;8051;50.820;4.884;2023-05-03T03:44:04;23.93;;;22.13;;
15905;SDS011;8051;50.820;4.884;2023-05-03T03:46:32;23.27;;;21.67;;
15905;SDS011;8051;50.820;4.884;2023-05-03T03:49:00;26.43;;;24.03;;
15905;SDS011;8051;50.820;4.884;2023-05-03T03:51:28;24.93;;;23.13;;
15905;SDS011;8051;50.820;4.884;2023-05-03T03:53:55;24.87;;;22.63;;
15905;SDS011;8051;50.820;4.884;2023-05-03T03:56:23;24.73;;;22.57;;
15905;SDS011;8051;50.820;4.884;2023-05-03T03:58:52;26.20;;;24.40;;
15905;SDS011;8051;50.820;4.884;2023-05-03T04:01:19;25.80;;;23.77;;
15905;SDS011;8051;50.820;4.884;2023-05-03T04:03:47;24.73;;;22.63;;
15905;SDS011;8051;50.820;4.884;2023-05-03T04:06:15;25.73;;;23.83;;
15905;SDS011;8051;50.820;4.884;2023-05-03T04:08:42;25.90;;;23.90;;
15905;SDS011;8051;50.820;4.884;2023-05-03T04:11:10;24.83;;;22.87;;
15905;SDS011;8051;50.820;4.884;2023-05-03T04:13:37;27.47;;;24.90;;
15905;SDS011;8051;50.820;4.884;2023-05-03T04:16:06;27.17;;;24.77;;
15905;SDS011;8051;50.820;4.884;2023-05-03T04:18:34;26.67;;;24.43;;
15905;SDS011;8051;50.820;4.884;2023-05-03T04:21:01;27.80;;;25.50;;
15905;SDS011;8051;50.820;4.884;2023-05-03T04:23:29;26.87;;;24.83;;
15905;SDS011;8051;50.820;4.884;2023-05-03T04:25:57;26.20;;;24.27;;
15905;SDS011;8051;50.820;4.884;2023-05-03T04:28:24;26.23;;;23.90;;
15905;SDS011;8051;50.820;4.884;2023-05-03T04:30:52;25.73;;;23.73;;
15905;SDS011;8051;50.820;4.884;2023-05-03T04:33:24;26.03;;;23.93;;
15905;SDS011;8051;50.820;4.884;2023-05-03T04:35:54;24.67;;;22.67;;
15905;SDS011;8051;50.820;4.884;2023-05-03T04:38:22;23.70;;;22.00;;
15905;SDS011;8051;50.820;4.884;2023-05-03T04:40:49;22.77;;;20.97;;
15905;SDS011;8051;50.820;4.884;2023-05-03T04:43:16;20.53;;;19.07;;
15905;SDS011;8051;50.820;4.884;2023-05-03T04:45:44;22.47;;;20.50;;
15905;SDS011;8051;50.820;4.884;2023-05-03T04:48:11;21.97;;;20.10;;
15905;SDS011;8051;50.820;4.884;2023-05-03T04:50:40;22.73;;;20.60;;
15905;SDS011;8051;50.820;4.884;2023-05-03T04:53:08;21.70;;;19.77;;
15905;SDS011;8051;50.820;4.884;2023-05-03T04:55:35;20.50;;;18.87;;
15905;SDS011;8051;50.820;4.884;2023-05-03T04:58:03;19.53;;;17.90;;
15905;SDS011;8051;50.820;4.884;2023-05-03T05:00:31;20.33;;;18.67;;
15905;SDS011;8051;50.820;4.884;2023-05-03T05:02:58;20.70;;;19.30;;
15905;SDS011;8051;50.820;4.884;2023-05-03T05:05:26;20.93;;;19.17;;
15905;SDS011;8051;50.820;4.884;2023-05-03T05:07:54;20.90;;;19.30;;
15905;SDS011;8051;50.820;4.884;2023-05-03T05:10:22;20.93;;;19.27;;
15905;SDS011;8051;50.820;4.884;2023-05-03T05:12:49;19.33;;;17.87;;
15905;SDS011;8051;50.820;4.884;2023-05-03T05:15:17;20.43;;;18.73;;
15905;SDS011;8051;50.820;4.884;2023-05-03T05:17:45;19.20;;;17.80;;
15905;SDS011;8051;50.820;4.884;2023-05-03T05:20:12;19.30;;;17.67;;
15905;SDS011;8051;50.820;4.884;2023-05-03T05:22:40;18.40;;;17.00;;
15905;SDS011;8051;50.820;4.884;2023-05-03T05:25:09;20.57;;;19.13;;
15905;SDS011;8051;50.820;4.884;2023-05-03T05:27:36;20.13;;;18.37;;
15905;SDS011;8051;50.820;4.884;2023-05-03T05:30:05;18.70;;;17.50;;
15905;SDS011;8051;50.820;4.884;2023-05-03T05:32:33;19.13;;;17.63;;
15905;SDS011;8051;50.820;4.884;2023-05-03T05:35:00;20.53;;;18.93;;
15905;SDS011;8051;50.820;4.884;2023-05-03T05:37:29;19.30;;;18.00;;
15905;SDS011;8051;50.820;4.884;2023-05-03T05:39:57;21.23;;;19.60;;
15905;SDS011;8051;50.820;4.884;2023-05-03T05:42:26;20.17;;;18.57;;
15905;SDS011;8051;50.820;4.884;2023-05-03T05:44:53;19.20;;;17.80;;
15905;SDS011;8051;50.820;4.884;2023-05-03T05:47:21;20.27;;;18.57;;
15905;SDS011;8051;50.820;4.884;2023-05-03T05:49:49;18.97;;;17.60;;
15905;SDS011;8051;50.820;4.884;2023-05-03T05:52:16;19.43;;;17.93;;
15905;SDS011;8051;50.820;4.884;2023-05-03T05:54:43;19.20;;;17.67;;
15905;SDS011;8051;50.820;4.884;2023-05-03T05:57:11;19.13;;;17.43;;
15905;SDS011;8051;50.820;4.884;2023-05-03T05:59:40;20.83;;;19.13;;
15905;SDS011;8051;50.820;4.884;2023-05-03T06:02:08;19.07;;;17.53;;
15905;SDS011;8051;50.820;4.884;2023-05-03T06:04:41;20.67;;;18.90;;
15905;SDS011;8051;50.820;4.884;2023-05-03T06:07:08;22.30;;;20.17;;
15905;SDS011;8051;50.820;4.884;2023-05-03T06:09:36;24.13;;;22.00;;
15905;SDS011;8051;50.820;4.884;2023-05-03T06:12:03;23.50;;;21.60;;
15905;SDS011;8051;50.820;4.884;2023-05-03T06:14:32;26.60;;;24.37;;
15905;SDS011;8051;50.820;4.884;2023-05-03T06:17:00;25.00;;;23.20;;
15905;SDS011;8051;50.820;4.884;2023-05-03T06:19:28;26.40;;;24.20;;
15905;SDS011;8051;50.820;4.884;2023-05-03T06:21:55;26.27;;;24.30;;
15905;SDS011;8051;50.820;4.884;2023-05-03T06:24:23;25.80;;;23.67;;
15905;SDS011;8051;50.820;4.884;2023-05-03T06:26:55;26.00;;;23.90;;
15905;SDS011;8051;50.820;4.884;2023-05-03T06:29:24;26.97;;;24.50;;
15905;SDS011;8051;50.820;4.884;2023-05-03T06:31:52;27.30;;;25.20;;
15905;SDS011;8051;50.820;4.884;2023-05-03T06:34:21;25.83;;;23.97;;
15905;SDS011;8051;50.820;4.884;2023-05-03T06:36:49;25.97;;;23.83;;
15905;SDS011;8051;50.820;4.884;2023-05-03T06:39:16;26.67;;;24.57;;
15905;SDS011;8051;50.820;4.884;2023-05-03T06:41:44;27.30;;;25.07;;
15905;SDS011;8051;50.820;4.884;2023-05-03T06:44:11;26.10;;;24.07;;
15905;SDS011;8051;50.820;4.884;2023-05-03T06:46:39;27.27;;;25.07;;
15905;SDS011;8051;50.820;4.884;2023-05-03T06:49:06;27.23;;;25.33;;
15905;SDS011;8051;50.820;4.884;2023-05-03T06:51:35;27.20;;;25.10;;
15905;SDS011;8051;50.820;4.884;2023-05-03T06:54:03;27.23;;;25.13;;
15905;SDS011;8051;50.820;4.884;2023-05-03T06:56:33;27.90;;;25.53;;
15905;SDS011;8051;50.820;4.884;2023-05-03T06:59:01;28.00;;;25.57;;
15905;SDS011;8051;50.820;4.884;2023-05-03T07:01:29;27.30;;;24.87;;
15905;SDS011;8051;50.820;4.884;2023-05-03T07:03:56;26.70;;;24.67;;
15905;SDS011;8051;50.820;4.884;2023-05-03T07:06:24;28.43;;;25.87;;
15905;SDS011;8051;50.820;4.884;2023-05-03T07:08:52;28.70;;;26.30;;
15905;SDS011;8051;50.820;4.884;2023-05-03T07:11:20;27.47;;;25.37;;
15905;SDS011;8051;50.820;4.884;2023-05-03T07:13:48;28.03;;;25.73;;
15905;SDS011;8051;50.820;4.884;2023-05-03T07:16:16;27.23;;;25.20;;
15905;SDS011;8051;50.820;4.884;2023-05-03T07:18:44;28.27;;;25.97;;
15905;SDS011;8051;50.820;4.884;2023-05-03T07:21:12;27.47;;;25.40;;
15905;SDS011;8051;50.820;4.884;2023-05-03T07:23:39;27.90;;;25.60;;
15905;SDS011;8051;50.820;4.884;2023-05-03T07:26:08;28.40;;;26.40;;
15905;SDS011;8051;50.820;4.884;2023-05-03T07:28:36;27.83;;;25.53;;
15905;SDS011;8051;50.820;4.884;2023-05-03T07:31:03;26.73;;;24.73;;
15905;SDS011;8051;50.820;4.884;2023-05-03T07:33:32;26.63;;;24.53;;
15905;SDS011;8051;50.820;4.884;2023-05-03T07:36:01;28.07;;;25.57;;
15905;SDS011;8051;50.820;4.884;2023-05-03T07:38:29;28.37;;;26.07;;
15905;SDS011;8051;50.820;4.884;2023-05-03T07:40:58;27.77;;;25.43;;
15905;SDS011;8051;50.820;4.884;2023-05-03T07:43:27;28.00;;;25.50;;
15905;SDS011;8051;50.820;4.884;2023-05-03T07:45:54;26.63;;;24.43;;
15905;SDS011;8051;50.820;4.884;2023-05-03T07:48:21;25.93;;;24.13;;
15905;SDS011;8051;50.820;4.884;2023-05-03T07:50:49;27.30;;;25.20;;
15905;SDS011;8051;50.820;4.884;2023-05-03T07:53:16;25.53;;;23.17;;
15905;SDS011;8051;50.820;4.884;2023-05-03T07:55:44;25.10;;;22.63;;
15905;SDS011;8051;50.820;4.884;2023-05-03T07:58:11;24.03;;;21.87;;
15905;SDS011;8051;50.820;4.884;2023-05-03T08:00:40;25.23;;;23.13;;
15905;SDS011;8051;50.820;4.884;2023-05-03T08:03:08;24.60;;;22.37;;
15905;SDS011;8051;50.820;4.884;2023-05-03T08:05:35;23.33;;;21.57;;
15905;SDS011;8051;50.820;4.884;2023-05-03T08:08:03;25.70;;;23.50;;
15905;SDS011;8051;50.820;4.884;2023-05-03T08:10:31;25.87;;;23.50;;
15905;SDS011;8051;50.820;4.884;2023-05-03T08:13:02;24.40;;;22.23;;
15905;SDS011;8051;50.820;4.884;2023-05-03T08:15:30;23.43;;;21.47;;
15905;SDS011;8051;50.820;4.884;2023-05-03T08:17:59;25.33;;;22.57;;
15905;SDS011;8051;50.820;4.884;2023-05-03T08:20:26;22.83;;;20.93;;
15905;SDS011;8051;50.820;4.884;2023-05-03T08:22:55;23.90;;;21.90;;
15905;SDS011;8051;50.820;4.884;2023-05-03T08:25:23;24.00;;;21.97;;
15905;SDS011;8051;50.820;4.884;2023-05-03T08:27:52;25.13;;;22.70;;
15905;SDS011;8051;50.820;4.884;2023-05-03T08:30:20;23.80;;;21.57;;
15905;SDS011;8051;50.820;4.884;2023-05-03T08:32:47;24.63;;;22.53;;
15905;SDS011;8051;50.820;4.884;2023-05-03T08:35:17;25.23;;;23.03;;
15905;SDS011;8051;50.820;4.884;2023-05-03T08:37:44;24.17;;;21.77;;
15905;SDS011;8051;50.820;4.884;2023-05-03T08:40:12;25.93;;;23.30;;
15905;SDS011;8051;50.820;4.884;2023-05-03T08:42:41;25.07;;;22.70;;
15905;SDS011;8051;50.820;4.884;2023-05-03T08:45:10;24.20;;;21.70;;
15905;SDS011;8051;50.820;4.884;2023-05-03T08:47:40;22.93;;;21.03;;
15905;SDS011;8051;50.820;4.884;2023-05-03T08:50:09;24.93;;;22.60;;
15905;SDS011;8051;50.820;4.884;2023-05-03T08:52:40;25.13;;;19.80;;
15905;SDS011;8051;50.820;4.884;2023-05-03T08:55:09;19.90;;;17.80;;
15905;SDS011;8051;50.820;4.884;2023-05-03T08:57:36;22.10;;;19.97;;
15905;SDS011;8051;50.820;4.884;2023-05-03T09:00:06;20.57;;;18.50;;
15905;SDS011;8051;50.820;4.884;2023-05-03T09:02:35;19.03;;;17.43;;
15905;SDS011;8051;50.820;4.884;2023-05-03T09:05:04;21.20;;;17.67;;
15905;SDS011;8051;50.820;4.884;2023-05-03T09:08:01;17.97;;;16.27;;
15905;SDS011;8051;50.820;4.884;2023-05-03T09:10:29;17.77;;;16.00;;
15905;SDS011;8051;50.820;4.884;2023-05-03T09:12:58;18.20;;;16.40;;
15905;SDS011;8051;50.820;4.884;2023-05-03T09:15:27;19.20;;;17.37;;
15905;SDS011;8051;50.820;4.884;2023-05-03T09:18:07;18.70;;;16.90;;
15905;SDS011;8051;50.820;4.884;2023-05-03T09:20:36;17.70;;;15.90;;
15905;SDS011;8051;50.820;4.884;2023-05-03T09:23:07;18.80;;;16.93;;
15905;SDS011;8051;50.820;4.884;2023-05-03T09:25:41;17.50;;;15.23;;
15905;SDS011;8051;50.820;4.884;2023-05-03T09:28:10;18.67;;;16.77;;
15905;SDS011;8051;50.820;4.884;2023-05-03T09:30:37;18.17;;;16.37;;
15905;SDS011;8051;50.820;4.884;2023-05-03T09:33:05;18.40;;;16.57;;
15905;SDS011;8051;50.820;4.884;2023-05-03T09:35:33;18.53;;;17.03;;
15905;SDS011;8051;50.820;4.884;2023-05-03T09:38:00;19.40;;;17.53;;
15905;SDS011;8051;50.820;4.884;2023-05-03T09:40:29;19.30;;;17.30;;
15905;SDS011;8051;50.820;4.884;2023-05-03T09:43:09;17.13;;;15.57;;
15905;SDS011;8051;50.820;4.884;2023-05-03T09:45:40;18.67;;;16.90;;
15905;SDS011;8051;50.820;4.884;2023-05-03T09:48:07;18.17;;;16.63;;
15905;SDS011;8051;50.820;4.884;2023-05-03T09:50:35;17.93;;;16.33;;
15905;SDS011;8051;50.820;4.884;2023-05-03T09:53:03;17.63;;;15.80;;
15905;SDS011;8051;50.820;4.884;2023-05-03T09:55:33;21.20;;;18.00;;
15905;SDS011;8051;50.820;4.884;2023-05-03T09:58:02;18.97;;;17.07;;
15905;SDS011;8051;50.820;4.884;2023-05-03T10:03:04;17.77;;;16.33;;
15905;SDS011;8051;50.820;4.884;2023-05-03T10:05:37;18.20;;;16.43;;
15905;SDS011;8051;50.820;4.884;2023-05-03T10:08:11;18.07;;;16.17;;
15905;SDS011;8051;50.820;4.884;2023-05-03T10:10:45;20.83;;;18.83;;
15905;SDS011;8051;50.820;4.884;2023-05-03T10:13:19;20.17;;;18.40;;
15905;SDS011;8051;50.820;4.884;2023-05-03T10:15:48;19.43;;;17.80;;
15905;SDS011;8051;50.820;4.884;2023-05-03T10:18:18;19.90;;;18.17;;
15905;SDS011;8051;50.820;4.884;2023-05-03T10:20:48;18.60;;;16.90;;
15905;SDS011;8051;50.820;4.884;2023-05-03T10:23:21;17.17;;;15.57;;
15905;SDS011;8051;50.820;4.884;2023-05-03T10:28:40;19.73;;;17.73;;
15905;SDS011;8051;50.820;4.884;2023-05-03T10:34:19;18.03;;;16.47;;
15905;SDS011;8051;50.820;4.884;2023-05-03T10:36:47;19.37;;;17.57;;
15905;SDS011;8051;50.820;4.884;2023-05-03T10:39:16;18.70;;;17.00;;
15905;SDS011;8051;50.820;4.884;2023-05-03T10:41:46;18.50;;;16.67;;
15905;SDS011;8051;50.820;4.884;2023-05-03T10:44:27;18.70;;;16.80;;
15905;SDS011;8051;50.820;4.884;2023-05-03T10:47:08;18.90;;;16.57;;
15905;SDS011;8051;50.820;4.884;2023-05-03T10:49:38;18.27;;;16.47;;
15905;SDS011;8051;50.820;4.884;2023-05-03T10:52:14;18.30;;;16.77;;
15905;SDS011;8051;50.820;4.884;2023-05-03T10:55:11;19.30;;;16.77;;
15905;SDS011;8051;50.820;4.884;2023-05-03T10:57:42;20.23;;;17.57;;
15905;SDS011;8051;50.820;4.884;2023-05-03T11:00:11;19.03;;;17.27;;
15905;SDS011;8051;50.820;4.884;2023-05-03T11:02:41;18.80;;;17.00;;
15905;SDS011;8051;50.820;4.884;2023-05-03T11:05:25;18.50;;;16.70;;
15905;SDS011;8051;50.820;4.884;2023-05-03T11:08:06;19.80;;;18.03;;
15905;SDS011;8051;50.820;4.884;2023-05-03T11:10:34;19.53;;;17.53;;
15905;SDS011;8051;50.820;4.884;2023-05-03T11:13:03;19.20;;;17.37;;
15905;SDS011;8051;50.820;4.884;2023-05-03T11:15:31;17.97;;;16.27;;
15905;SDS011;8051;50.820;4.884;2023-05-03T11:17:58;18.00;;;16.50;;
15905;SDS011;8051;50.820;4.884;2023-05-03T11:20:26;17.47;;;15.80;;
15905;SDS011;8051;50.820;4.884;2023-05-03T11:22:54;18.27;;;16.77;;
15905;SDS011;8051;50.820;4.884;2023-05-03T11:25:22;19.03;;;17.23;;
15905;SDS011;8051;50.820;4.884;2023-05-03T11:27:49;19.77;;;17.67;;
15905;SDS011;8051;50.820;4.884;2023-05-03T11:30:18;18.70;;;17.10;;
15905;SDS011;8051;50.820;4.884;2023-05-03T11:32:45;20.20;;;18.20;;
15905;SDS011;8051;50.820;4.884;2023-05-03T11:35:14;19.90;;;18.17;;
15905;SDS011;8051;50.820;4.884;2023-05-03T11:37:42;17.60;;;16.10;;
15905;SDS011;8051;50.820;4.884;2023-05-03T11:40:13;18.90;;;17.40;;
15905;SDS011;8051;50.820;4.884;2023-05-03T11:42:51;19.70;;;17.90;;
15905;SDS011;8051;50.820;4.884;2023-05-03T11:45:22;17.97;;;16.33;;
15905;SDS011;8051;50.820;4.884;2023-05-03T11:47:50;16.77;;;15.40;;
15905;SDS011;8051;50.820;4.884;2023-05-03T11:50:25;19.43;;;17.37;;
15905;SDS011;8051;50.820;4.884;2023-05-03T11:53:08;16.60;;;15.20;;
15905;SDS011;8051;50.820;4.884;2023-05-03T11:55:37;18.60;;;16.70;;
15905;SDS011;8051;50.820;4.884;2023-05-03T11:58:07;18.13;;;16.43;;
15905;SDS011;8051;50.820;4.884;2023-05-03T12:00:36;16.70;;;15.10;;
15905;SDS011;8051;50.820;4.884;2023-05-03T12:03:04;18.07;;;16.27;;
15905;SDS011;8051;50.820;4.884;2023-05-03T12:05:32;18.90;;;17.27;;
15905;SDS011;8051;50.820;4.884;2023-05-03T12:08:00;19.00;;;16.90;;
15905;SDS011;8051;50.820;4.884;2023-05-03T12:10:30;17.70;;;16.00;;
15905;SDS011;8051;50.820;4.884;2023-05-03T12:12:58;19.30;;;16.73;;
15905;SDS011;8051;50.820;4.884;2023-05-03T12:15:26;18.27;;;16.80;;
15905;SDS011;8051;50.820;4.884;2023-05-03T12:17:57;19.13;;;17.10;;
15905;SDS011;8051;50.820;4.884;2023-05-03T12:20:27;18.43;;;16.83;;
15905;SDS011;8051;50.820;4.884;2023-05-03T12:22:56;20.70;;;18.57;;
15905;SDS011;8051;50.820;4.884;2023-05-03T12:25:26;17.90;;;16.13;;
15905;SDS011;8051;50.820;4.884;2023-05-03T12:27:55;18.40;;;16.90;;
15905;SDS011;8051;50.820;4.884;2023-05-03T12:30:23;18.03;;;16.47;;
15905;SDS011;8051;50.820;4.884;2023-05-03T12:32:51;17.27;;;15.47;;
15905;SDS011;8051;50.820;4.884;2023-05-03T12:35:20;18.23;;;16.43;;
15905;SDS011;8051;50.820;4.884;2023-05-03T12:37:48;18.23;;;16.53;;
15905;SDS011;8051;50.820;4.884;2023-05-03T12:40:17;18.77;;;17.07;;
15905;SDS011;8051;50.820;4.884;2023-05-03T12:42:45;18.40;;;16.70;;
15905;SDS011;8051;50.820;4.884;2023-05-03T12:45:12;19.23;;;17.47;;
15905;SDS011;8051;50.820;4.884;2023-05-03T12:47:40;19.43;;;17.73;;
15905;SDS011;8051;50.820;4.884;2023-05-03T12:50:07;18.10;;;16.60;;
15905;SDS011;8051;50.820;4.884;2023-05-03T12:52:37;17.43;;;16.03;;
15905;SDS011;8051;50.820;4.884;2023-05-03T12:55:05;18.73;;;17.43;;
15905;SDS011;8051;50.820;4.884;2023-05-03T12:57:33;18.70;;;15.83;;
15905;SDS011;8051;50.820;4.884;2023-05-03T13:00:01;17.50;;;14.93;;
15905;SDS011;8051;50.820;4.884;2023-05-03T13:02:29;18.37;;;16.77;;
15905;SDS011;8051;50.820;4.884;2023-05-03T13:04:57;19.60;;;17.67;;
15905;SDS011;8051;50.820;4.884;2023-05-03T13:07:25;19.47;;;17.87;;
15905;SDS011;8051;50.820;4.884;2023-05-03T13:09:55;19.00;;;17.30;;
15905;SDS011;8051;50.820;4.884;2023-05-03T13:12:23;19.53;;;17.83;;
15905;SDS011;8051;50.820;4.884;2023-05-03T13:14:52;19.17;;;17.37;;
15905;SDS011;8051;50.820;4.884;2023-05-03T13:17:20;19.37;;;17.67;;
15905;SDS011;8051;50.820;4.884;2023-05-03T13:19:48;20.57;;;18.53;;
15905;SDS011;8051;50.820;4.884;2023-05-03T13:22:16;18.37;;;16.50;;
15905;SDS011;8051;50.820;4.884;2023-05-03T13:24:44;18.27;;;16.50;;
15905;SDS011;8051;50.820;4.884;2023-05-03T13:27:14;17.80;;;16.17;;
15905;SDS011;8051;50.820;4.884;2023-05-03T13:29:42;18.80;;;16.30;;
15905;SDS011;8051;50.820;4.884;2023-05-03T13:32:09;16.70;;;15.43;;
15905;SDS011;8051;50.820;4.884;2023-05-03T13:34:37;16.90;;;15.53;;
15905;SDS011;8051;50.820;4.884;2023-05-03T13:37:05;17.43;;;15.77;;
15905;SDS011;8051;50.820;4.884;2023-05-03T13:39:32;16.47;;;15.20;;
15905;SDS011;8051;50.820;4.884;2023-05-03T13:42:00;18.03;;;16.63;;
15905;SDS011;8051;50.820;4.884;2023-05-03T13:44:29;19.60;;;17.67;;
15905;SDS011;8051;50.820;4.884;2023-05-03T13:46:56;17.13;;;15.50;;
15905;SDS011;8051;50.820;4.884;2023-05-03T13:49:24;17.77;;;16.27;;
15905;SDS011;8051;50.820;4.884;2023-05-03T13:51:51;19.50;;;17.90;;
15905;SDS011;8051;50.820;4.884;2023-05-03T13:54:19;18.20;;;16.70;;
15905;SDS011;8051;50.820;4.884;2023-05-03T13:56:46;17.50;;;16.03;;
15905;SDS011;8051;50.820;4.884;2023-05-03T13:59:13;18.70;;;16.90;;
15905;SDS011;8051;50.820;4.884;2023-05-03T14:01:43;16.80;;;15.40;;
15905;SDS011;8051;50.820;4.884;2023-05-03T14:04:12;16.83;;;15.33;;
15905;SDS011;8051;50.820;4.884;2023-05-03T14:06:39;17.70;;;16.33;;
15905;SDS011;8051;50.820;4.884;2023-05-03T14:09:07;17.70;;;16.30;;
15905;SDS011;8051;50.820;4.884;2023-05-03T14:11:35;18.13;;;16.20;;
15905;SDS011;8051;50.820;4.884;2023-05-03T14:14:03;19.60;;;17.83;;
15905;SDS011;8051;50.820;4.884;2023-05-03T14:16:30;19.83;;;18.30;;
15905;SDS011;8051;50.820;4.884;2023-05-03T14:19:00;19.10;;;17.23;;
15905;SDS011;8051;50.820;4.884;2023-05-03T14:21:27;17.80;;;16.03;;
15905;SDS011;8051;50.820;4.884;2023-05-03T14:23:55;17.87;;;16.17;;
15905;SDS011;8051;50.820;4.884;2023-05-03T14:26:23;19.33;;;17.53;;
15905;SDS011;8051;50.820;4.884;2023-05-03T14:28:53;17.03;;;15.57;;
15905;SDS011;8051;50.820;4.884;2023-05-03T14:31:21;19.60;;;17.87;;
15905;SDS011;8051;50.820;4.884;2023-05-03T14:33:48;18.07;;;16.50;;
15905;SDS011;8051;50.820;4.884;2023-05-03T14:36:17;18.43;;;16.57;;
15905;SDS011;8051;50.820;4.884;2023-05-03T14:38:44;20.00;;;18.17;;
15905;SDS011;8051;50.820;4.884;2023-05-03T14:41:12;19.83;;;18.33;;
15905;SDS011;8051;50.820;4.884;2023-05-03T14:43:39;19.40;;;17.80;;
15905;SDS011;8051;50.820;4.884;2023-05-03T14:46:07;19.80;;;18.07;;
15905;SDS011;8051;50.820;4.884;2023-05-03T14:48:34;19.60;;;18.00;;
15905;SDS011;8051;50.820;4.884;2023-05-03T14:51:02;18.90;;;17.20;;